Time,TemperatureF,DewpointF,PressureIn,WindDirection,WindDirectionDegrees,WindSpeedMPH,WindSpeedGustMPH,Humidity,HourlyPrecipIn,Conditions,Clouds,dailyrainin,SoftwareType,DateUTC
2013-02-22 00:24:00,68.7,65.0,30.02,SE,140,5.0,6.0,87,0.00,,,0.00,weatherlink.com 1.10,2013-02-22 05:24:00,
2013-02-22 00:39:00,68.7,65.0,30.02,SE,143,2.0,6.0,88,0.00,,,0.00,weatherlink.com 1.10,2013-02-22 05:39:00,
2013-02-22 00:53:00,68.6,65.0,30.02,SSE,147,5.0,5.0,89,0.00,,,0.00,weatherlink.com 1.10,2013-02-22 05:53:00,
2013-02-22 01:09:00,68.5,65.0,30.02,SE,141,3.0,5.0,89,0.00,,,0.00,weatherlink.com 1.10,2013-02-22 06:09:00,
2013-02-22 01:24:00,68.3,65.0,30.02,SE,142,2.0,5.0,90,0.00,,,0.00,weatherlink.com 1.10,2013-02-22 06:24:00,
2013-02-22 01:39:00,68.0,65.0,30.01,SE,138,1.0,6.0,90,0.00,,,0.00,weatherlink.com 1.10,2013-02-22 06:39:00,
2013-02-22 01:54:00,67.8,65.0,30.01,SE,134,2.0,4.0,90,0.00,,,0.00,weatherlink.com 1.10,2013-02-22 06:54:00,
2013-02-22 02:09:00,67.6,65.0,30.01,SE,145,2.0,5.0,91,0.00,,,0.00,weatherlink.com 1.10,2013-02-22 07:09:00,
2013-02-22 02:24:00,67.4,65.0,30.01,SE,135,3.0,6.0,91,0.00,,,0.00,weatherlink.com 1.10,2013-02-22 07:24:00,
2013-02-22 02:39:00,67.3,65.0,30.00,SE,142,3.0,6.0,91,0.00,,,0.00,weatherlink.com 1.10,2013-02-22 07:39:00,
2013-02-22 02:55:00,67.2,65.0,30.00,SE,140,3.0,5.0,92,0.00,,,0.00,weatherlink.com 1.10,2013-02-22 07:55:00,
2013-02-22 03:10:00,67.2,65.0,30.00,SE,143,2.0,5.0,92,0.00,,,0.00,weatherlink.com 1.10,2013-02-22 08:10:00,
2013-02-22 03:25:00,67.1,65.0,30.00,SE,143,3.0,4.0,92,0.00,,,0.00,weatherlink.com 1.10,2013-02-22 08:25:00,
2013-02-22 03:40:00,67.1,65.0,30.00,SE,143,2.0,4.0,93,0.00,,,0.00,weatherlink.com 1.10,2013-02-22 08:40:00,
2013-02-22 03:55:00,67.0,65.0,30.00,SE,143,2.0,4.0,93,0.00,,,0.00,weatherlink.com 1.10,2013-02-22 08:55:00,
2013-02-22 04:11:00,67.1,65.0,30.01,SE,143,1.0,5.0,93,0.00,,,0.00,weatherlink.com 1.10,2013-02-22 09:11:00,
2013-02-22 04:26:00,66.9,65.0,30.01,SE,143,3.0,4.0,93,0.00,,,0.00,weatherlink.com 1.10,2013-02-22 09:26:00,
2013-02-22 04:41:00,66.8,65.0,30.01,SE,143,3.0,4.0,94,0.00,,,0.00,weatherlink.com 1.10,2013-02-22 09:41:00,
2013-02-22 04:55:00,67.0,65.0,30.01,SE,132,3.0,5.0,94,0.00,,,0.00,weatherlink.com 1.10,2013-02-22 09:55:00,
2013-02-22 05:10:00,66.9,65.0,30.01,SE,141,2.0,5.0,94,0.00,,,0.00,weatherlink.com 1.10,2013-02-22 10:10:00,
2013-02-22 05:25:00,66.8,65.0,30.02,SSE,150,2.0,5.0,94,0.00,,,0.00,weatherlink.com 1.10,2013-02-22 10:25:00,
2013-02-22 05:40:00,67.0,65.0,30.02,SE,140,2.0,5.0,94,0.00,,,0.00,weatherlink.com 1.10,2013-02-22 10:40:00,
2013-02-22 05:55:00,66.8,65.0,30.03,SE,139,4.0,5.0,94,0.00,,,0.00,weatherlink.com 1.10,2013-02-22 10:55:00,
2013-02-22 06:11:00,67.0,65.0,30.03,SSE,165,2.0,7.0,94,0.00,,,0.00,weatherlink.com 1.10,2013-02-22 11:11:00,
2013-02-22 06:26:00,67.0,66.0,30.04,SE,138,4.0,9.0,95,0.00,,,0.00,weatherlink.com 1.10,2013-02-22 11:26:00,
2013-02-22 06:41:00,67.0,66.0,30.04,SE,129,3.0,6.0,95,0.00,,,0.00,weatherlink.com 1.10,2013-02-22 11:41:00,
2013-02-22 06:56:00,66.8,65.0,30.05,ESE,115,1.0,4.0,95,0.00,,,0.00,weatherlink.com 1.10,2013-02-22 11:56:00,
2013-02-22 07:11:00,66.8,65.0,30.05,ESE,121,2.0,5.0,95,0.00,,,0.00,weatherlink.com 1.10,2013-02-22 12:11:00,
2013-02-22 07:27:00,67.0,66.0,30.06,ESE,122,2.0,5.0,95,0.00,,,0.00,weatherlink.com 1.10,2013-02-22 12:27:00,
2013-02-22 07:42:00,67.8,66.0,30.06,SE,128,3.0,6.0,95,0.00,,,0.00,weatherlink.com 1.10,2013-02-22 12:42:00,
2013-02-22 07:57:00,68.2,67.0,30.06,SSE,152,6.0,7.0,94,0.00,,,0.00,weatherlink.com 1.10,2013-02-22 12:57:00,
2013-02-22 08:12:00,68.9,67.0,30.06,SSE,150,5.0,8.0,94,0.00,,,0.00,weatherlink.com 1.10,2013-02-22 13:12:00,
2013-02-22 08:27:00,69.5,68.0,30.07,SE,146,4.0,8.0,94,0.00,,,0.00,weatherlink.com 1.10,2013-02-22 13:27:00,
2013-02-22 08:42:00,70.3,68.0,30.07,ESE,113,5.0,10.0,93,0.00,,,0.00,weatherlink.com 1.10,2013-02-22 13:42:00,
2013-02-22 08:57:00,71.6,69.0,30.07,SE,140,2.0,7.0,92,0.00,,,0.00,weatherlink.com 1.10,2013-02-22 13:57:00,
2013-02-22 09:12:00,73.0,70.0,30.08,SE,138,3.0,7.0,90,0.00,,,0.00,weatherlink.com 1.10,2013-02-22 14:12:00,
2013-02-22 09:28:00,73.9,70.0,30.08,SE,137,3.0,8.0,88,0.00,,,0.00,weatherlink.com 1.10,2013-02-22 14:28:00,
2013-02-22 09:43:00,75.2,71.0,30.07,SE,140,5.0,8.0,87,0.00,,,0.00,weatherlink.com 1.10,2013-02-22 14:43:00,
2013-02-22 09:58:00,76.3,71.0,30.07,SE,145,5.0,8.0,84,0.00,,,0.00,weatherlink.com 1.10,2013-02-22 14:58:00,
2013-02-22 10:13:00,76.9,71.0,30.07,SE,136,5.0,9.0,83,0.00,,,0.00,weatherlink.com 1.10,2013-02-22 15:13:00,
2013-02-22 10:28:00,77.4,71.0,30.07,SSE,159,5.0,9.0,80,0.00,,,0.00,weatherlink.com 1.10,2013-02-22 15:28:00,
2013-02-22 10:43:00,77.5,71.0,30.07,SE,141,1.0,8.0,79,0.00,,,0.00,weatherlink.com 1.10,2013-02-22 15:43:00,
2013-02-22 10:59:00,78.4,71.0,30.07,SSE,148,3.0,6.0,78,0.00,,,0.00,weatherlink.com 1.10,2013-02-22 15:59:00,
2013-02-22 11:13:00,79.0,71.0,30.06,SW,223,3.0,6.0,76,0.00,,,0.00,weatherlink.com 1.10,2013-02-22 16:13:00,
2013-02-22 11:29:00,78.0,71.0,30.06,SSW,192,2.0,5.0,78,0.00,,,0.00,weatherlink.com 1.10,2013-02-22 16:29:00,
2013-02-22 11:44:00,77.8,70.0,30.05,South,189,3.0,5.0,78,0.00,,,0.00,weatherlink.com 1.10,2013-02-22 16:44:00,
2013-02-22 11:59:00,77.9,71.0,30.05,South,179,1.0,5.0,79,0.00,,,0.00,weatherlink.com 1.10,2013-02-22 16:59:00,
2013-02-22 12:15:00,77.7,71.0,30.05,South,178,3.0,5.0,79,0.00,,,0.00,weatherlink.com 1.10,2013-02-22 17:15:00,
2013-02-22 12:30:00,77.3,70.0,30.04,SE,140,2.0,6.0,79,0.00,,,0.00,weatherlink.com 1.10,2013-02-22 17:30:00,
2013-02-22 12:45:00,76.9,70.0,30.03,South,184,6.0,6.0,80,0.00,,,0.00,weatherlink.com 1.10,2013-02-22 17:45:00,
2013-02-22 12:59:00,76.5,70.0,30.03,South,181,4.0,8.0,81,0.00,,,0.00,weatherlink.com 1.10,2013-02-22 17:59:00,
2013-02-22 13:15:00,76.8,70.0,30.02,SSE,168,2.0,8.0,80,0.00,,,0.00,weatherlink.com 1.10,2013-02-22 18:15:00,
2013-02-22 13:30:00,76.8,70.0,30.02,South,186,4.0,6.0,80,0.00,,,0.00,weatherlink.com 1.10,2013-02-22 18:30:00,
2013-02-22 13:46:00,77.1,71.0,30.01,South,178,0.0,6.0,80,0.00,,,0.00,weatherlink.com 1.10,2013-02-22 18:46:00,
2013-02-22 14:01:00,78.6,72.0,30.01,SW,217,2.0,5.0,79,0.00,,,0.00,weatherlink.com 1.10,2013-02-22 19:01:00,
2013-02-22 14:16:00,79.1,71.0,30.00,South,182,0.0,6.0,77,0.00,,,0.00,weatherlink.com 1.10,2013-02-22 19:16:00,
2013-02-22 14:31:00,79.1,71.0,30.00,SSE,147,2.0,9.0,77,0.00,,,0.00,weatherlink.com 1.10,2013-02-22 19:31:00,
2013-02-22 14:46:00,78.6,70.0,30.00,SW,214,2.0,5.0,76,0.00,,,0.00,weatherlink.com 1.10,2013-02-22 19:46:00,
2013-02-22 15:01:00,77.9,71.0,30.00,South,182,1.0,4.0,78,0.00,,,0.00,weatherlink.com 1.10,2013-02-22 20:01:00,
2013-02-22 15:16:00,77.1,71.0,29.99,SSE,163,1.0,6.0,80,0.00,,,0.00,weatherlink.com 1.10,2013-02-22 20:16:00,
2013-02-22 15:31:00,76.3,70.0,29.99,SSE,166,7.0,7.0,81,0.00,,,0.00,weatherlink.com 1.10,2013-02-22 20:31:00,
2013-02-22 15:46:00,75.6,70.0,29.99,South,175,2.0,7.0,83,0.00,,,0.00,weatherlink.com 1.10,2013-02-22 20:46:00,
2013-02-22 16:01:00,75.4,70.0,29.98,South,182,0.0,5.0,83,0.00,,,0.00,weatherlink.com 1.10,2013-02-22 21:01:00,
2013-02-22 16:16:00,75.3,70.0,29.98,South,175,1.0,4.0,84,0.00,,,0.00,weatherlink.com 1.10,2013-02-22 21:16:00,
2013-02-22 16:31:00,74.9,70.0,29.98,SSE,152,2.0,5.0,85,0.00,,,0.00,weatherlink.com 1.10,2013-02-22 21:31:00,
2013-02-22 16:46:00,74.4,70.0,29.98,SE,146,3.0,5.0,86,0.00,,,0.00,weatherlink.com 1.10,2013-02-22 21:46:00,
2013-02-22 17:01:00,73.9,70.0,29.99,SSE,159,3.0,5.0,87,0.00,,,0.00,weatherlink.com 1.10,2013-02-22 22:01:00,
2013-02-22 17:16:00,73.5,70.0,29.99,South,178,2.0,5.0,87,0.00,,,0.00,weatherlink.com 1.10,2013-02-22 22:16:00,
2013-02-22 17:31:00,73.2,70.0,29.99,South,176,2.0,5.0,88,0.00,,,0.00,weatherlink.com 1.10,2013-02-22 22:31:00,
2013-02-22 17:46:00,72.9,69.0,30.00,South,180,2.0,5.0,88,0.00,,,0.00,weatherlink.com 1.10,2013-02-22 22:46:00,
2013-02-22 18:02:00,72.6,70.0,30.00,SSW,213,3.0,5.0,90,0.00,,,0.00,weatherlink.com 1.10,2013-02-22 23:02:00,
2013-02-22 18:17:00,72.2,69.0,30.00,SE,146,1.0,5.0,90,0.00,,,0.00,weatherlink.com 1.10,2013-02-22 23:17:00,
2013-02-22 18:47:00,71.8,69.0,30.00,SE,146,4.0,7.0,91,0.00,,,0.00,weatherlink.com 1.10,2013-02-22 23:47:00,
2013-02-22 19:02:00,71.7,69.0,30.00,SSE,161,2.0,6.0,91,0.00,,,0.00,weatherlink.com 1.10,2013-02-23 00:02:00,
2013-02-22 19:17:00,71.9,69.0,30.01,SSW,202,3.0,5.0,91,0.00,,,0.00,weatherlink.com 1.10,2013-02-23 00:17:00,
2013-02-22 19:32:00,72.0,69.0,30.01,South,172,2.0,6.0,91,0.00,,,0.00,weatherlink.com 1.10,2013-02-23 00:32:00,
2013-02-22 19:47:00,72.0,69.0,30.02,South,175,1.0,5.0,90,0.00,,,0.00,weatherlink.com 1.10,2013-02-23 00:47:00,
2013-02-22 20:02:00,71.8,69.0,30.02,South,178,1.0,5.0,91,0.00,,,0.00,weatherlink.com 1.10,2013-02-23 01:02:00,
2013-02-22 20:17:00,71.6,69.0,30.02,South,186,2.0,4.0,91,0.00,,,0.00,weatherlink.com 1.10,2013-02-23 01:17:00,
2013-02-22 20:32:00,71.4,69.0,30.03,SSW,197,1.0,4.0,92,0.00,,,0.00,weatherlink.com 1.10,2013-02-23 01:32:00,
2013-02-22 20:48:00,71.2,69.0,30.03,SSW,205,2.0,3.0,92,0.00,,,0.00,weatherlink.com 1.10,2013-02-23 01:48:00,
2013-02-22 21:03:00,71.1,69.0,30.04,South,190,0.0,4.0,92,0.00,,,0.00,weatherlink.com 1.10,2013-02-23 02:03:00,
2013-02-22 21:18:00,71.0,69.0,30.04,SW,219,0.0,2.0,92,0.00,,,0.00,weatherlink.com 1.10,2013-02-23 02:18:00,
2013-02-22 21:33:00,70.8,68.0,30.04,SW,219,0.0,2.0,92,0.00,,,0.00,weatherlink.com 1.10,2013-02-23 02:33:00,
2013-02-22 21:48:00,70.7,69.0,30.04,SW,219,1.0,2.0,93,0.00,,,0.00,weatherlink.com 1.10,2013-02-23 02:48:00,
2013-02-22 22:03:00,70.4,68.0,30.04,SW,219,0.0,1.0,93,0.00,,,0.00,weatherlink.com 1.10,2013-02-23 03:03:00,
2013-02-22 22:19:00,70.3,68.0,30.04,SW,219,0.0,1.0,93,0.00,,,0.00,weatherlink.com 1.10,2013-02-23 03:19:00,
2013-02-22 22:34:00,70.3,68.0,30.04,SW,219,0.0,1.0,93,0.00,,,0.00,weatherlink.com 1.10,2013-02-23 03:34:00,
2013-02-22 22:48:00,70.0,68.0,30.04,SW,219,0.0,1.0,93,0.00,,,0.00,weatherlink.com 1.10,2013-02-23 03:48:00,
2013-02-22 23:03:00,69.7,68.0,30.04,SW,219,0.0,0.0,94,0.00,,,0.00,weatherlink.com 1.10,2013-02-23 04:03:00,
2013-02-22 23:19:00,69.8,68.0,30.04,SW,219,0.0,2.0,94,0.00,,,0.00,weatherlink.com 1.10,2013-02-23 04:19:00,
2013-02-22 23:33:00,69.9,68.0,30.03,SE,134,1.0,3.0,93,0.00,,,0.00,weatherlink.com 1.10,2013-02-23 04:33:00,
2013-02-22 23:49:00,70.3,68.0,30.02,SSE,158,2.0,4.0,93,0.00,,,0.00,weatherlink.com 1.10,2013-02-23 04:49:00,